K5SM

Sunlight Airport

Sunlight Mountain, Colorado, USA
METAR K5SM 201848Z AUTO 00000KT 10SM CLR 05/M08 A3064 RMK AO2
Observed Flight Rules
Oct-20 @ 18:48 UTC (32 minutes ago) Visual Flight Rules
Visibility Clouds
10 miles
  • Clear skies
Temperatures Readings
Current 5°C / 41°F
Dewpoint -8°C / 18°F
Humidity 39%
Altimeter 30.64" Hg
Pressure 1038 hPa
Elevation 3232
METAR K5SM 201848Z AUTO 00000KT 10SM CLR 05/M08 A3064 RMK AO2
Observed Flight Rules
Oct-20 @ 18:48 UTC
(32 minutes ago)
VFR
Clouds
  • Clear skies
Temperature Dewpoint
5°C / 41°F -8°C / 18°F
Humidity Altimeter Pressure
39% 30.64" Hg 1038 hPa